Time;durP1;ratioP1;P1;durP2;ratioP2;P2;SDS_P1;SDS_P2;PMS_P1;PMS_P2;Temp;Humidity;BMP_temperature;BMP_pressure;BME280_temperature;BME280_humidity;BME280_pressure;Samples;Min_cycle;Max_cycle;Signal;HPM_P1;HPM_P2
2021/04/17 00:01:51;;;;;;;6.57;2.88;;;8.40;90.10;;;;;;4994038;28;20026;-78
2021/04/17 00:04:18;;;;;;;9.70;2.95;;;8.30;90.10;;;;;;4993610;28;20117;-77
2021/04/17 00:06:44;;;;;;;5.45;3.50;;;8.40;90.30;;;;;;4992753;28;20038;-78
2021/04/17 00:09:12;;;;;;;4.55;3.00;;;8.30;90.30;;;;;;4992793;28;20140;-78
2021/04/17 00:11:40;;;;;;;5.70;2.75;;;8.30;90.20;;;;;;4994459;28;20034;-79
2021/04/17 00:14:10;;;;;;;5.97;3.03;;;8.30;90.30;;;;;;4992528;28;20033;-78
2021/04/17 00:16:36;;;;;;;5.82;3.03;;;8.20;90.50;;;;;;4993470;28;20033;-78
2021/04/17 00:19:02;;;;;;;6.07;3.17;;;8.20;90.70;;;;;;4992209;28;20124;-78
2021/04/17 00:21:28;;;;;;;5.07;2.83;;;8.20;90.80;;;;;;4993194;28;20030;-78
2021/04/17 00:23:54;;;;;;;5.93;2.78;;;8.10;90.90;;;;;;4994105;28;20042;-78
2021/04/17 00:26:19;;;;;;;5.20;2.88;;;8.20;90.90;;;;;;4993106;28;20030;-77
2021/04/17 00:28:45;;;;;;;7.85;3.13;;;8.20;90.90;;;;;;4992910;28;20069;-78
2021/04/17 00:31:11;;;;;;;5.85;3.75;;;8.20;90.90;;;;;;4992918;28;20193;-77
2021/04/17 00:33:36;;;;;;;6.95;3.67;;;8.20;91.10;;;;;;4993292;28;20478;-78
2021/04/17 00:36:02;;;;;;;7.13;3.83;;;8.20;91.70;;;;;;4992430;28;20387;-77
2021/04/17 00:38:28;;;;;;;6.60;3.92;;;8.20;92.20;;;;;;4992899;28;20069;-79
2021/04/17 00:40:55;;;;;;;9.25;4.93;;;8.30;92.70;;;;;;4992529;28;20392;-79
2021/04/17 00:43:22;;;;;;;9.52;4.75;;;8.30;92.60;;;;;;4992898;28;20050;-78
2021/04/17 00:45:47;;;;;;;6.72;5.10;;;8.30;92.70;;;;;;4991896;28;20133;-77
2021/04/17 00:48:14;;;;;;;8.38;5.00;;;8.30;92.90;;;;;;4991682;28;20073;-78
2021/04/17 00:50:40;;;;;;;11.30;5.55;;;8.30;92.90;;;;;;4993746;28;20456;-77
2021/04/17 00:53:07;;;;;;;8.68;6.22;;;8.30;93.00;;;;;;4991560;28;20034;-77
2021/04/17 00:55:33;;;;;;;12.25;6.13;;;8.20;93.10;;;;;;4992312;28;20049;-78
2021/04/17 00:58:00;;;;;;;7.50;5.72;;;8.20;93.20;;;;;;4991657;28;20132;-79
2021/04/17 01:00:26;;;;;;;10.50;5.82;;;8.20;93.60;;;;;;4992213;28;20380;-78
2021/04/17 01:02:58;;;;;;;7.85;5.20;;;8.30;94.30;;;;;;4991555;28;20026;-78
2021/04/17 01:05:27;;;;;;;9.57;5.78;;;8.30;94.30;;;;;;4993097;28;20026;-78
2021/04/17 01:07:58;;;;;;;8.90;6.35;;;8.20;94.20;;;;;;4991253;28;20325;-78
2021/04/17 01:10:34;;;;;;;10.60;4.97;;;8.20;94.60;;;;;;4991922;28;20480;-78
2021/04/17 01:13:01;;;;;;;10.70;5.93;;;8.20;94.80;;;;;;4990906;28;20274;-78
2021/04/17 01:15:27;;;;;;;9.48;6.35;;;8.30;95.00;;;;;;4993010;28;20485;-78
2021/04/17 01:17:56;;;;;;;11.23;6.00;;;8.20;95.30;;;;;;4990870;28;20027;-78
2021/04/17 01:20:40;;;;;;;8.73;5.63;;;8.20;95.40;;;;;;4990816;28;20030;-78
2021/04/17 01:23:24;;;;;;;7.05;5.45;;;8.20;95.60;;;;;;4992779;28;20030;-78
2021/04/17 01:25:54;;;;;;;13.88;5.90;;;8.20;95.80;;;;;;4991296;28;20081;-79
2021/04/17 01:28:22;;;;;;;11.40;7.13;;;8.20;96.40;;;;;;4993293;28;20042;-79
2021/04/17 01:30:51;;;;;;;13.40;5.82;;;8.10;96.00;;;;;;4992200;28;20547;-77
2021/04/17 01:33:18;;;;;;;6.97;5.07;;;8.10;96.20;;;;;;4992731;28;20027;-77
2021/04/17 01:35:47;;;;;;;8.57;5.05;;;8.10;96.70;;;;;;4992869;28;20038;-79
2021/04/17 01:38:21;;;;;;;6.68;5.53;;;8.00;96.70;;;;;;4991519;28;20030;-77
2021/04/17 01:40:52;;;;;;;10.48;5.15;;;8.00;97.60;;;;;;4991626;28;20030;-77
2021/04/17 01:43:21;;;;;;;;;;;8.00;97.60;;;;;;4990989;28;20514;-77
2021/04/17 01:45:47;;;;;;;7.40;5.35;;;7.90;98.30;;;;;;4991464;28;19944;-78
2021/04/17 01:48:14;;;;;;;11.45;4.82;;;7.90;98.60;;;;;;4974502;28;20060;-78
2021/04/17 01:50:41;;;;;;;9.60;5.13;;;8.00;98.50;;;;;;4991191;28;20031;-78
2021/04/17 01:53:12;;;;;;;6.82;4.55;;;7.80;94.50;;;;;;4990322;28;20202;-78
2021/04/17 01:55:38;;;;;;;5.93;4.85;;;7.80;94.40;;;;;;4991145;28;20038;-77
2021/04/17 01:58:05;;;;;;;6.57;4.60;;;7.80;94.70;;;;;;4990452;28;20058;-79
2021/04/17 02:00:30;;;;;;;8.93;5.22;;;7.80;94.60;;;;;;4992314;28;20022;-76
2021/04/17 02:02:56;;;;;;;8.23;4.53;;;7.70;94.60;;;;;;4990458;28;20026;-76
2021/04/17 02:05:22;;;;;;;7.28;4.13;;;7.70;94.70;;;;;;4990984;28;20030;-77
2021/04/17 02:07:47;;;;;;;7.47;4.78;;;7.80;94.90;;;;;;4992668;28;20049;-77
2021/04/17 02:10:13;;;;;;;10.70;6.82;;;7.80;94.50;;;;;;4992026;28;20453;-77
2021/04/17 02:12:39;;;;;;;11.65;5.60;;;7.80;94.70;;;;;;4992100;28;20084;-76
2021/04/17 02:15:05;;;;;;;6.65;4.53;;;7.80;94.70;;;;;;4991307;28;20117;-76
2021/04/17 02:18:01;;;;;;;6.13;4.32;;;7.80;94.40;;;;;;4990288;28;20088;-77
2021/04/17 02:20:33;;;;;;;5.25;4.18;;;7.80;94.30;;;;;;4990482;28;20037;-76
2021/04/17 02:22:58;;;;;;;11.45;5.20;;;7.80;94.10;;;;;;4991469;28;20534;-76
2021/04/17 02:25:26;;;;;;;8.18;5.35;;;7.80;94.00;;;;;;4990630;28;20026;-79
2021/04/17 02:27:51;;;;;;;10.25;4.60;;;7.80;94.10;;;;;;4991069;28;20030;-78
2021/04/17 02:30:18;;;;;;;14.75;5.35;;;7.80;94.00;;;;;;4990522;28;20034;-77
2021/04/17 02:32:44;;;;;;;6.13;4.90;;;7.70;94.10;;;;;;4991799;28;20382;-79
2021/04/17 02:35:10;;;;;;;6.25;4.65;;;7.80;94.30;;;;;;4990083;28;20371;-78
2021/04/17 02:37:36;;;;;;;7.18;4.70;;;7.80;93.80;;;;;;4992066;28;20031;-76
2021/04/17 02:40:02;;;;;;;8.35;4.80;;;7.90;93.80;;;;;;4991348;28;20045;-77
2021/04/17 02:42:28;;;;;;;10.45;5.20;;;7.80;93.70;;;;;;4990596;28;20117;-78
2021/04/17 02:44:54;;;;;;;8.80;5.43;;;7.90;93.90;;;;;;4989947;28;20066;-77
2021/04/17 02:47:19;;;;;;;6.75;5.40;;;7.90;93.60;;;;;;4990420;28;20356;-78
2021/04/17 02:49:45;;;;;;;9.07;5.13;;;7.80;93.90;;;;;;4989601;28;20050;-77
2021/04/17 02:52:11;;;;;;;9.90;4.53;;;7.80;94.10;;;;;;4989556;28;20368;-78
2021/04/17 02:54:36;;;;;;;8.65;5.03;;;7.80;94.00;;;;;;4990035;28;20027;-77
2021/04/17 02:57:02;;;;;;;5.55;4.50;;;7.80;93.90;;;;;;4989568;28;20057;-76
2021/04/17 02:59:28;;;;;;;8.90;4.78;;;7.80;94.10;;;;;;4990149;28;20073;-79
2021/04/17 03:01:54;;;;;;;8.05;5.13;;;7.80;94.00;;;;;;4990550;28;20401;-76
2021/04/17 03:04:20;;;;;;;6.85;5.15;;;7.80;94.00;;;;;;4991550;28;20030;-77
2021/04/17 03:06:45;;;;;;;6.68;4.50;;;7.90;94.20;;;;;;4991310;28;20030;-78
2021/04/17 03:09:11;;;;;;;9.32;5.82;;;7.90;93.60;;;;;;4990634;28;20070;-76
2021/04/17 03:11:37;;;;;;;4.95;3.97;;;7.80;94.00;;;;;;4989784;28;20054;-76
2021/04/17 03:14:03;;;;;;;7.53;4.25;;;7.70;93.90;;;;;;4989421;28;20524;-76
2021/04/17 03:16:28;;;;;;;8.73;4.40;;;7.80;93.80;;;;;;4989993;28;20473;-77
2021/04/17 03:18:54;;;;;;;5.20;3.78;;;7.80;93.70;;;;;;4990278;28;20096;-77
2021/04/17 03:21:20;;;;;;;7.68;3.67;;;7.80;93.50;;;;;;4989474;28;20097;-78
2021/04/17 03:23:45;;;;;;;7.00;4.82;;;7.80;93.60;;;;;;4991224;28;20029;-77
2021/04/17 03:26:11;;;;;;;5.82;3.55;;;7.70;93.70;;;;;;4990349;28;20034;-76
2021/04/17 03:28:37;;;;;;;8.32;4.05;;;7.80;93.20;;;;;;4991271;28;20114;-76
2021/04/17 03:31:03;;;;;;;6.40;3.47;;;7.70;93.20;;;;;;4990203;28;20422;-76
2021/04/17 03:33:30;;;;;;;6.38;3.88;;;7.60;93.30;;;;;;4991057;28;20022;-77
2021/04/17 03:35:56;;;;;;;5.00;3.75;;;7.70;93.00;;;;;;4989066;28;20484;-75
2021/04/17 03:38:22;;;;;;;10.18;3.95;;;7.80;92.90;;;;;;4991230;28;20035;-78
2021/04/17 03:40:48;;;;;;;4.53;3.55;;;7.60;93.00;;;;;;4989836;28;20057;-77
2021/04/17 03:43:15;;;;;;;5.18;3.53;;;7.60;93.00;;;;;;4989218;28;20391;-77
2021/04/17 03:45:40;;;;;;;6.35;3.70;;;7.70;92.70;;;;;;4989834;28;20031;-76
2021/04/17 03:48:06;;;;;;;9.93;3.35;;;7.60;92.50;;;;;;4988578;28;20054;-77
2021/04/17 03:50:32;;;;;;;5.45;3.70;;;7.60;92.60;;;;;;4989844;28;20074;-76
2021/04/17 03:52:58;;;;;;;8.00;3.35;;;7.60;92.60;;;;;;4990381;28;20060;-76
2021/04/17 03:55:23;;;;;;;9.52;3.60;;;7.50;92.60;;;;;;4989755;28;20130;-77
2021/04/17 03:57:49;;;;;;;4.10;3.10;;;7.40;92.80;;;;;;4989328;28;20065;-76
2021/04/17 04:00:18;;;;;;;6.38;3.00;;;7.40;92.80;;;;;;4990366;28;20195;-76
2021/04/17 04:02:44;;;;;;;7.95;3.85;;;7.40;92.60;;;;;;4989542;28;20066;-74
2021/04/17 04:05:11;;;;;;;4.90;2.83;;;7.50;92.50;;;;;;4989535;28;20062;-76
2021/04/17 04:07:38;;;;;;;5.43;2.72;;;7.40;92.50;;;;;;4992808;28;20038;-75
2021/04/17 04:10:06;;;;;;;6.10;2.97;;;7.30;92.50;;;;;;4992348;28;20041;-75
2021/04/17 04:12:31;;;;;;;6.45;3.47;;;7.30;92.60;;;;;;4993000;28;20430;-75
2021/04/17 04:14:58;;;;;;;5.50;3.08;;;7.30;92.40;;;;;;4992368;28;20110;-74
2021/04/17 04:17:23;;;;;;;8.25;4.15;;;7.30;92.70;;;;;;4992872;28;20030;-76
2021/04/17 04:19:49;;;;;;;5.57;3.17;;;7.30;92.50;;;;;;4992617;28;20337;-75
2021/04/17 04:22:14;;;;;;;6.85;3.00;;;7.30;92.50;;;;;;4993484;28;20026;-75
2021/04/17 04:24:40;;;;;;;7.78;2.90;;;7.30;92.30;;;;;;4992688;28;20038;-75
2021/04/17 04:27:06;;;;;;;9.10;3.25;;;7.20;92.40;;;;;;4993420;28;20058;-77
2021/04/17 04:29:33;;;;;;;11.80;3.30;;;7.20;92.40;;;;;;4993633;28;20395;-75
2021/04/17 04:32:00;;;;;;;8.63;3.40;;;7.30;92.30;;;;;;4992963;28;20038;-77
2021/04/17 04:34:25;;;;;;;5.97;3.30;;;7.20;92.20;;;;;;4991843;28;20030;-76
2021/04/17 04:36:51;;;;;;;5.35;2.92;;;7.00;92.80;;;;;;4991554;28;20034;-76
2021/04/17 04:39:17;;;;;;;6.32;2.92;;;6.90;92.70;;;;;;4990375;28;20161;-76
2021/04/17 04:41:42;;;;;;;4.32;2.60;;;6.90;92.90;;;;;;4992219;28;20076;-80
2021/04/17 04:44:08;;;;;;;3.70;2.55;;;6.90;92.70;;;;;;4992435;28;20030;-76
2021/04/17 04:46:34;;;;;;;5.65;3.15;;;7.00;92.60;;;;;;4991790;28;20100;-76
2021/04/17 04:49:00;;;;;;;5.63;2.80;;;6.80;92.60;;;;;;5002889;28;20087;-74
2021/04/17 04:51:26;;;;;;;9.25;4.03;;;6.90;92.80;;;;;;5012814;28;20388;-76
2021/04/17 04:53:53;;;;;;;5.28;2.60;;;6.90;92.70;;;;;;5012627;28;20029;-77
2021/04/17 04:56:18;;;;;;;4.93;2.92;;;6.90;92.50;;;;;;4994035;28;20026;-77
2021/04/17 04:58:44;;;;;;;6.32;3.38;;;7.00;92.40;;;;;;4994411;28;20036;-76
2021/04/17 05:01:10;;;;;;;6.97;3.17;;;7.00;92.30;;;;;;4994028;28;20022;-76
2021/04/17 05:03:35;;;;;;;7.32;2.70;;;7.00;92.20;;;;;;4995277;28;20106;-76
2021/04/17 05:06:01;;;;;;;3.85;3.17;;;7.10;92.10;;;;;;4994359;28;20084;-75
2021/04/17 05:08:27;;;;;;;6.00;2.70;;;7.10;91.90;;;;;;4994526;28;20384;-76
2021/04/17 05:10:52;;;;;;;9.35;3.25;;;7.10;91.80;;;;;;4994269;28;20138;-75
2021/04/17 05:13:18;;;;;;;4.15;2.25;;;7.00;91.80;;;;;;4994578;28;20026;-75
2021/04/17 05:15:44;;;;;;;8.77;2.53;;;7.00;92.00;;;;;;4994785;28;20025;-76
2021/04/17 05:18:09;;;;;;;8.93;2.85;;;7.10;91.70;;;;;;4992836;28;20455;-75
2021/04/17 05:20:35;;;;;;;4.72;2.40;;;7.10;91.70;;;;;;4994643;28;20079;-76
2021/04/17 05:23:00;;;;;;;6.70;3.05;;;7.20;91.40;;;;;;4994185;28;20060;-73
2021/04/17 05:25:26;;;;;;;5.03;2.47;;;7.20;91.50;;;;;;4994588;28;20022;-76
2021/04/17 05:27:53;;;;;;;4.47;2.80;;;7.20;91.40;;;;;;5012501;28;20029;-76
2021/04/17 05:30:20;;;;;;;4.93;2.83;;;7.20;91.30;;;;;;5012046;28;20040;-74
2021/04/17 05:32:45;;;;;;;5.57;2.70;;;7.10;91.30;;;;;;4994313;28;20026;-62
2021/04/17 05:35:11;;;;;;;6.18;3.13;;;7.10;91.20;;;;;;5011421;28;20416;-69
2021/04/17 05:37:37;;;;;;;3.40;2.47;;;7.20;90.90;;;;;;4994232;28;20034;-73
2021/04/17 05:40:04;;;;;;;7.03;2.78;;;7.30;90.90;;;;;;4994012;28;20033;-77
2021/04/17 05:42:30;;;;;;;5.47;3.10;;;7.40;90.60;;;;;;5012154;28;20428;-77
2021/04/17 05:44:55;;;;;;;3.83;2.53;;;7.30;90.70;;;;;;4994049;28;20028;-76
2021/04/17 05:47:21;;;;;;;7.07;3.22;;;7.30;90.60;;;;;;5002635;28;20576;-77
2021/04/17 05:49:47;;;;;;;4.97;2.40;;;7.40;90.40;;;;;;4990859;28;20045;-74
2021/04/17 05:52:12;;;;;;;5.38;2.42;;;7.60;91.80;;;;;;4992952;28;20029;-64
2021/04/17 05:54:38;;;;;;;8.45;2.35;;;7.60;90.10;;;;;;4993504;28;20382;-73
2021/04/17 05:57:04;;;;;;;2.90;2.08;;;7.70;90.10;;;;;;5010326;28;20111;-75
2021/04/17 05:59:30;;;;;;;5.88;2.63;;;7.70;89.60;;;;;;4993375;28;20041;-75
2021/04/17 06:01:56;;;;;;;6.35;2.78;;;7.80;88.70;;;;;;4985719;28;20314;-75
2021/04/17 06:04:21;;;;;;;5.63;1.95;;;7.90;89.00;;;;;;5001598;28;20509;-74
2021/04/17 06:06:47;;;;;;;5.18;2.15;;;7.90;88.20;;;;;;4993999;28;20056;-75
2021/04/17 06:09:13;;;;;;;7.72;2.80;;;8.10;87.80;;;;;;4993391;28;20068;-74
2021/04/17 06:11:40;;;;;;;5.20;2.42;;;8.20;87.60;;;;;;4994027;28;20072;-75
2021/04/17 06:14:06;;;;;;;8.25;3.13;;;8.30;86.90;;;;;;4992790;28;20026;-76
2021/04/17 06:16:32;;;;;;;6.05;2.35;;;8.30;86.50;;;;;;4993754;28;20086;-75
2021/04/17 06:18:58;;;;;;;10.93;2.33;;;8.20;86.70;;;;;;4994394;28;20490;-70
2021/04/17 06:21:24;;;;;;;4.13;2.60;;;8.30;87.20;;;;;;4992381;28;20440;-71
2021/04/17 06:23:49;;;;;;;5.68;1.98;;;8.20;86.40;;;;;;4993241;28;20088;-74
2021/04/17 06:26:15;;;;;;;7.70;2.60;;;8.30;86.60;;;;;;4992357;28;20022;-71
2021/04/17 06:28:41;;;;;;;8.38;3.28;;;8.20;86.60;;;;;;4992578;28;20034;-75
2021/04/17 06:31:06;;;;;;;5.82;2.40;;;8.40;86.50;;;;;;5010734;28;20038;-75
2021/04/17 06:33:32;;;;;;;6.55;3.30;;;8.40;86.40;;;;;;4992801;28;20463;-75
2021/04/17 06:35:58;;;;;;;160.05;100.50;;;8.60;85.40;;;;;;5012210;28;20748;-77
2021/04/17 06:38:24;;;;;;;9.55;5.20;;;9.00;91.80;;;;;;4992357;28;20034;-75
2021/04/17 06:40:51;;;;;;;8.13;2.50;;;9.20;84.20;;;;;;4993599;28;20022;-75
2021/04/17 06:43:22;;;;;;;6.97;3.38;;;9.40;84.10;;;;;;5010033;28;20029;-75
2021/04/17 06:45:48;;;;;;;4.55;2.28;;;9.50;82.50;;;;;;4993264;28;20030;-75
2021/04/17 06:48:16;;;;;;;6.57;2.67;;;9.50;82.30;;;;;;4988807;28;20057;-76
2021/04/17 06:50:42;;;;;;;5.55;2.40;;;9.60;82.30;;;;;;4990238;28;20030;-75
2021/04/17 06:53:11;;;;;;;7.07;4.13;;;9.60;81.80;;;;;;4989154;28;20041;-68
2021/04/17 06:55:39;;;;;;;16.10;7.75;;;9.50;83.90;;;;;;4989256;28;20026;-67
2021/04/17 06:58:05;;;;;;;10.35;6.25;;;9.80;90.30;;;;;;4990786;28;20026;-67
2021/04/17 07:00:31;;;;;;;10.93;5.10;;;10.00;89.00;;;;;;4972826;28;20040;-67
2021/04/17 07:02:57;;;;;;;6.82;3.50;;;10.10;89.10;;;;;;4989510;28;20034;-76
2021/04/17 07:05:23;;;;;;;3.97;2.05;;;10.20;82.10;;;;;;4990732;28;20033;-77
2021/04/17 07:07:49;;;;;;;4.05;2.10;;;10.20;80.70;;;;;;4989213;28;20495;-76
2021/04/17 07:10:16;;;;;;;7.25;2.65;;;10.10;80.00;;;;;;4987928;28;20118;-78
2021/04/17 07:12:45;;;;;;;4.90;1.88;;;10.10;80.00;;;;;;4989134;28;20337;-76
2021/04/17 07:15:13;;;;;;;4.95;2.78;;;10.20;79.50;;;;;;4989007;28;20026;-77
2021/04/17 07:17:39;;;;;;;8.68;3.05;;;10.20;78.30;;;;;;4990045;28;20109;-75
2021/04/17 07:20:13;;;;;;;4.90;2.50;;;10.00;79.30;;;;;;4990978;28;20030;-78
2021/04/17 07:22:41;;;;;;;9.45;2.65;;;10.00;78.80;;;;;;4989171;28;20038;-77
2021/04/17 07:25:07;;;;;;;6.57;2.53;;;10.00;78.90;;;;;;4991360;28;20057;-75
2021/04/17 07:27:37;;;;;;;9.35;3.08;;;9.80;78.90;;;;;;4990558;28;20027;-76
2021/04/17 07:30:24;;;;;;;6.72;3.03;;;9.80;79.10;;;;;;4989464;28;20041;-75
2021/04/17 07:33:16;;;;;;;8.55;2.85;;;9.80;79.10;;;;;;4990116;28;20050;-75
2021/04/17 07:35:45;;;;;;;11.30;2.42;;;9.90;78.40;;;;;;4987595;28;20042;-73
2021/04/17 07:38:12;;;;;;;16.73;6.93;;;9.90;78.40;;;;;;4988433;28;20112;-64
2021/04/17 07:40:40;;;;;;;11.32;3.15;;;10.50;91.60;;;;;;4991578;28;20030;-60
2021/04/17 07:43:06;;;;;;;4.47;2.78;;;10.90;81.30;;;;;;4993905;28;20042;-75
2021/04/17 07:45:37;;;;;;;6.88;3.17;;;11.40;77.10;;;;;;4993635;28;20182;-79
2021/04/17 07:48:26;;;;;;;6.93;2.88;;;11.40;74.90;;;;;;4996411;28;20057;-74
2021/04/17 07:50:53;;;;;;;5.60;2.78;;;11.30;75.20;;;;;;5013434;28;20034;-80
2021/04/17 07:53:40;;;;;;;10.55;2.67;;;11.20;74.70;;;;;;4995161;28;20107;-79
2021/04/17 07:56:36;;;;;;;8.43;3.70;;;11.10;74.30;;;;;;4996454;28;20025;-80
2021/04/17 07:59:05;;;;;;;8.45;3.30;;;11.30;74.60;;;;;;4995722;28;20053;-78
2021/04/17 08:01:33;;;;;;;7.30;4.80;;;11.10;74.40;;;;;;4994485;28;20760;-75
2021/04/17 08:04:00;;;;;;;9.57;2.72;;;11.40;80.50;;;;;;4996314;28;20044;-76
2021/04/17 08:06:27;;;;;;;5.50;2.28;;;11.90;73.90;;;;;;4995636;28;20527;-76
2021/04/17 08:08:54;;;;;;;5.57;2.90;;;12.10;74.00;;;;;;4996125;28;20061;-76
2021/04/17 08:11:22;;;;;;;12.27;3.97;;;12.50;72.80;;;;;;5012969;28;20022;-76
2021/04/17 08:13:50;;;;;;;3.85;2.50;;;12.50;71.60;;;;;;5013492;28;20029;-78
2021/04/17 08:16:18;;;;;;;6.00;2.85;;;13.00;69.80;;;;;;4995189;28;20470;-76
2021/04/17 08:18:44;;;;;;;6.28;2.97;;;13.30;69.40;;;;;;4996265;28;20034;-69
2021/04/17 08:21:11;;;;;;;10.43;4.60;;;13.40;69.00;;;;;;4995695;28;20440;-71
2021/04/17 08:23:38;;;;;;;7.55;3.65;;;14.00;74.80;;;;;;4995814;28;20413;-71
2021/04/17 08:26:06;;;;;;;19.48;5.68;;;14.80;69.90;;;;;;4995304;28;20030;-72
2021/04/17 08:28:38;;;;;;;6.22;2.85;;;;;;;;;;5012923;28;20742;-71
2021/04/17 08:31:22;;;;;;;4.85;2.70;;;16.00;70.70;;;;;;5013021;28;20053;-71
2021/04/17 08:34:15;;;;;;;7.28;2.35;;;16.00;67.00;;;;;;4995297;28;20036;-71
2021/04/17 08:36:53;;;;;;;8.13;3.45;;;16.20;66.80;;;;;;4989243;28;20049;-77
2021/04/17 08:39:34;;;;;;;11.23;3.63;;;15.60;62.90;;;;;;4993648;28;20073;-77
2021/04/17 08:42:00;;;;;;;9.13;2.70;;;15.00;60.40;;;;;;5013578;28;20112;-78
2021/04/17 08:44:35;;;;;;;7.38;2.15;;;14.90;61.20;;;;;;4994995;28;20439;-77
2021/04/17 08:47:04;;;;;;;4.20;2.40;;;14.70;60.40;;;;;;4996416;28;20092;-79
2021/04/17 08:49:35;;;;;;;5.70;2.78;;;14.50;61.50;;;;;;4994986;28;20503;-79
2021/04/17 08:52:42;;;;;;;3.72;2.50;;;14.30;62.30;;;;;;4995965;28;20029;-79
2021/04/17 08:55:13;;;;;;;7.00;2.40;;;14.10;62.30;;;;;;4913735;29;20036;-79
2021/04/17 08:57:39;;;;;;;3.55;2.10;;;14.50;61.00;;;;;;4981972;28;20368;-76
2021/04/17 09:00:07;;;;;;;6.70;2.63;;;14.30;62.20;;;;;;4993432;28;20037;-78
2021/04/17 09:02:49;;;;;;;4.15;2.33;;;14.30;61.50;;;;;;4994743;28;20037;-78
2021/04/17 09:05:17;;;;;;;4.82;2.38;;;14.90;62.30;;;;;;4994440;28;20030;-78
2021/04/17 09:07:47;;;;;;;5.05;2.30;;;15.40;60.90;;;;;;4994584;28;20037;-77
2021/04/17 09:10:22;;;;;;;12.98;3.78;;;15.50;59.20;;;;;;4993666;28;20057;-79
2021/04/17 09:13:13;;;;;;;7.95;2.33;;;16.00;58.40;;;;;;4994605;28;20025;-77
2021/04/17 09:16:00;;;;;;;6.67;2.27;;;15.80;57.50;;;;;;4993949;28;20048;-77
2021/04/17 09:18:38;;;;;;;4.68;1.80;;;16.10;56.70;;;;;;5010784;28;20281;-82
2021/04/17 09:21:06;;;;;;;5.15;1.80;;;15.80;56.90;;;;;;4995341;28;20037;-82
2021/04/17 09:23:40;;;;;;;4.70;2.40;;;16.40;55.20;;;;;;4996190;28;20029;-75
2021/04/17 09:26:09;;;;;;;3.53;1.48;;;16.40;54.50;;;;;;4995235;28;20072;-60
2021/04/17 09:28:37;;;;;;;4.20;2.35;;;16.70;55.90;;;;;;4991243;28;20231;-63
2021/04/17 09:31:03;;;;;;;4.68;2.40;;;16.90;56.60;;;;;;4990031;28;20053;-64
2021/04/17 09:33:30;;;;;;;4.20;1.75;;;17.00;54.40;;;;;;4968995;28;20420;-60
2021/04/17 09:35:56;;;;;;;3.90;1.70;;;17.40;53.90;;;;;;5007613;28;20041;-62
2021/04/17 09:38:28;;;;;;;8.00;1.80;;;17.30;54.90;;;;;;5006470;28;20034;-61
2021/04/17 09:40:54;;;;;;;5.00;2.28;;;16.90;53.40;;;;;;5007275;28;20030;-60
2021/04/17 09:43:26;;;;;;;3.75;2.10;;;16.70;54.60;;;;;;5009884;28;20034;-69
2021/04/17 09:45:53;;;;;;;10.48;1.92;;;16.60;53.00;;;;;;4991978;28;20458;-59
2021/04/17 09:48:21;;;;;;;4.25;2.05;;;16.30;52.20;;;;;;4974134;28;20096;-67
2021/04/17 09:50:55;;;;;;;3.45;1.98;;;16.10;53.50;;;;;;5011814;28;20025;-78
2021/04/17 09:53:32;;;;;;;4.30;2.53;;;16.10;52.80;;;;;;5009752;28;20034;-76
2021/04/17 09:56:03;;;;;;;1.80;1.35;;;16.30;52.90;;;;;;5003984;28;20061;-76
2021/04/17 09:58:41;;;;;;;3.97;1.70;;;16.60;50.90;;;;;;5011800;28;20026;-74
2021/04/17 10:01:15;;;;;;;4.82;1.52;;;16.30;50.60;;;;;;5031051;28;20084;-74
2021/04/17 10:03:44;;;;;;;3.70;1.40;;;15.70;51.10;;;;;;5029247;28;20037;-74
2021/04/17 10:06:34;;;;;;;3.97;2.08;;;15.50;51.00;;;;;;5012199;28;20030;-73
2021/04/17 10:09:12;;;;;;;3.45;1.35;;;15.50;50.90;;;;;;5011832;28;20037;-47
2021/04/17 10:11:43;;;;;;;120.30;22.58;;;16.20;55.10;;;;;;5010977;28;20859;-47
2021/04/17 10:14:11;;;;;;;66.32;17.40;;;16.30;62.90;;;;;;4996268;28;20382;-47
2021/04/17 10:16:47;;;;;;;49.78;10.98;;;16.80;59.40;;;;;;5025547;28;20037;-47
2021/04/17 10:19:15;;;;;;;40.55;7.93;;;17.00;53.90;;;;;;5024540;28;20183;-48
2021/04/17 10:21:46;;;;;;;45.88;9.80;;;17.20;56.00;;;;;;4990660;28;20121;-48
2021/04/17 10:24:27;;;;;;;39.58;8.48;;;17.60;56.70;;;;;;5008288;28;20083;-48
2021/04/17 10:27:03;;;;;;;27.27;6.07;;;18.20;56.20;;;;;;5008637;28;20092;-48
2021/04/17 10:29:47;;;;;;;10.75;4.10;;;18.60;65.00;;;;;;4990480;28;20353;-53
2021/04/17 10:32:20;;;;;;;18.27;4.22;;;18.60;51.40;;;;;;4975829;28;20507;-48
2021/04/17 10:35:05;;;;;;;13.32;4.10;;;19.10;51.70;;;;;;5004193;28;20099;-47
2021/04/17 10:37:40;;;;;;;34.90;5.53;;;19.40;50.40;;;;;;5008428;28;20022;-49
2021/04/17 10:40:07;;;;;;;17.23;3.88;;;19.40;50.80;;;;;;4990084;28;20038;-49
2021/04/17 10:43:03;;;;;;;11.73;3.47;;;19.60;50.20;;;;;;4990582;28;20037;-48
2021/04/17 10:45:28;;;;;;;12.13;2.60;;;19.70;50.40;;;;;;4998178;28;20026;-49
2021/04/17 10:48:14;;;;;;;21.42;4.38;;;19.50;54.40;;;;;;4969176;28;20064;-50
2021/04/17 10:50:51;;;;;;;15.30;3.50;;;19.10;68.80;;;;;;4988630;28;20039;-50
2021/04/17 10:53:30;;;;;;;12.23;2.72;;;18.70;56.10;;;;;;4989063;28;20116;-67
2021/04/17 10:56:01;;;;;;;9.20;2.42;;;18.60;55.60;;;;;;4989091;28;20059;-71
2021/04/17 10:58:34;;;;;;;6.45;2.78;;;18.20;54.80;;;;;;4990334;28;20112;-64
2021/04/17 11:01:06;;;;;;;6.28;1.95;;;17.70;54.70;;;;;;5007582;28;20037;-63
2021/04/17 11:03:54;;;;;;;14.68;3.35;;;17.60;52.40;;;;;;4988541;28;20125;-67
2021/04/17 11:06:24;;;;;;;10.65;2.20;;;17.50;56.60;;;;;;4989808;28;20058;-62
2021/04/17 11:09:07;;;;;;;5.90;1.98;;;17.70;53.40;;;;;;4990083;28;20069;-63
2021/04/17 11:11:33;;;;;;;6.28;2.58;;;17.50;54.10;;;;;;5022349;28;20045;-62
2021/04/17 11:14:01;;;;;;;5.10;1.90;;;17.10;53.50;;;;;;4990445;28;20049;-71
2021/04/17 11:16:42;;;;;;;6.50;1.63;;;17.30;54.50;;;;;;5005743;28;20068;-63
2021/04/17 11:19:32;;;;;;;6.18;1.42;;;17.50;50.80;;;;;;4993994;28;20336;-63
2021/04/17 11:22:14;;;;;;;4.03;1.33;;;17.70;49.70;;;;;;5011763;28;20029;-75
2021/04/17 11:25:05;;;;;;;8.75;2.85;;;18.20;50.50;;;;;;4994764;28;20155;-65
2021/04/17 11:27:31;;;;;;;9.20;1.50;;;18.20;50.80;;;;;;4994012;28;20462;-65
2021/04/17 11:29:57;;;;;;;8.98;2.75;;;18.10;49.60;;;;;;4994990;28;20096;-64
2021/04/17 11:32:24;;;;;;;7.95;2.33;;;17.70;52.80;;;;;;5011859;28;20034;-63
2021/04/17 11:34:51;;;;;;;5.13;1.25;;;17.50;53.00;;;;;;4993888;28;20487;-62
2021/04/17 11:37:17;;;;;;;3.72;1.40;;;17.50;51.70;;;;;;4993277;28;20399;-62
2021/04/17 11:39:43;;;;;;;3.05;1.33;;;17.50;51.50;;;;;;5012119;28;20116;-63
2021/04/17 11:42:16;;;;;;;5.10;1.65;;;17.60;55.00;;;;;;4977665;28;20430;-75
2021/04/17 11:44:43;;;;;;;3.78;1.88;;;17.70;52.50;;;;;;4994342;28;20037;-74
2021/04/17 11:47:09;;;;;;;5.30;2.35;;;16.80;49.70;;;;;;4980423;28;20050;-75
2021/04/17 11:49:36;;;;;;;2.65;1.75;;;16.50;49.00;;;;;;5018402;28;20037;-76
2021/04/17 11:52:04;;;;;;;8.07;1.90;;;16.40;49.30;;;;;;4998158;28;20038;-76
2021/04/17 11:54:29;;;;;;;4.75;2.28;;;16.50;50.10;;;;;;4988945;28;20030;-75
2021/04/17 11:56:55;;;;;;;4.93;1.95;;;16.70;49.50;;;;;;4980039;28;20472;-73
2021/04/17 11:59:21;;;;;;;8.38;1.95;;;16.30;49.20;;;;;;4993381;28;20042;-76
2021/04/17 12:01:46;;;;;;;3.05;1.55;;;15.90;49.60;;;;;;5012130;28;20376;-75
2021/04/17 12:04:12;;;;;;;5.07;2.40;;;15.60;50.80;;;;;;4993464;28;20037;-75
2021/04/17 12:06:38;;;;;;;2.78;1.15;;;15.60;51.50;;;;;;4974622;28;20460;-75
2021/04/17 12:09:04;;;;;;;6.32;2.17;;;15.70;51.30;;;;;;5011341;28;20096;-75
2021/04/17 12:11:32;;;;;;;9.00;2.20;;;15.50;52.10;;;;;;4992872;28;20422;-72
2021/04/17 12:13:57;;;;;;;7.03;1.67;;;15.60;52.20;;;;;;5010548;28;20125;-72
2021/04/17 12:16:23;;;;;;;9.45;2.15;;;15.70;51.40;;;;;;4992476;28;20432;-74
2021/04/17 12:18:49;;;;;;;9.35;1.35;;;15.60;52.00;;;;;;4979132;28;20431;-61
2021/04/17 12:21:15;;;;;;;6.60;1.95;;;16.00;57.40;;;;;;4974516;28;20538;-58
2021/04/17 12:23:40;;;;;;;5.95;2.40;;;16.20;55.30;;;;;;5011822;28;20025;-63
2021/04/17 12:26:06;;;;;;;7.43;1.85;;;16.20;52.50;;;;;;4993271;28;20446;-60
2021/04/17 12:28:32;;;;;;;8.60;1.65;;;16.00;52.40;;;;;;4977098;28;20065;-60
2021/04/17 12:30:58;;;;;;;4.47;1.63;;;16.00;52.20;;;;;;4993815;28;20329;-60
2021/04/17 12:33:28;;;;;;;5.07;1.63;;;15.90;52.90;;;;;;5010346;28;20108;-60
2021/04/17 12:35:54;;;;;;;6.55;2.47;;;15.80;51.40;;;;;;4977019;28;20064;-58
2021/04/17 12:38:20;;;;;;;6.78;1.73;;;15.80;51.50;;;;;;4992711;28;20069;-58
2021/04/17 12:40:49;;;;;;;9.50;2.03;;;15.70;51.80;;;;;;5011007;28;20113;-60
2021/04/17 12:43:15;;;;;;;5.72;2.30;;;15.60;51.70;;;;;;4992087;28;20033;-72
2021/04/17 12:45:42;;;;;;;4.40;1.80;;;15.50;50.90;;;;;;5011575;28;20072;-71
2021/04/17 12:48:09;;;;;;;6.38;1.63;;;15.10;51.70;;;;;;4992454;28;20057;-72
2021/04/17 12:50:35;;;;;;;3.88;1.27;;;14.90;52.30;;;;;;5011336;28;20053;-73
2021/04/17 12:53:03;;;;;;;2.70;0.88;;;14.50;53.10;;;;;;4992264;28;20026;-74
2021/04/17 12:55:29;;;;;;;4.03;1.50;;;14.70;53.60;;;;;;4993131;28;20029;-72
2021/04/17 12:57:55;;;;;;;4.05;1.25;;;14.60;53.30;;;;;;4993373;28;20096;-71
2021/04/17 13:00:21;;;;;;;2.92;1.70;;;14.50;53.60;;;;;;4992698;28;20446;-72